Time;durP1;ratioP1;P1;durP2;ratioP2;P2;SDS_P1;SDS_P2;PMS_P1;PMS_P2;Temp;Humidity;BMP_temperature;BMP_pressure;BME280_temperature;BME280_humidity;BME280_pressure;Samples;Min_cycle;Max_cycle;Signal;HPM_P1;HPM_P2
2022/05/24 00:00:35;;;;;;;5.30;3.90;;;;;;100017.86;;;;107811;1271;28669;-30
2022/05/24 00:03:03;;;;;;;4.60;3.30;;;;;;100013.92;;;;107822;1271;27366;-31
2022/05/24 00:05:33;;;;;;;4.40;3.10;;;;;;100013.73;;;;107794;1271;28731;-31
2022/05/24 00:08:00;;;;;;;5.60;3.50;;;;;;100016.52;;;;107832;1271;28637;-30
2022/05/24 00:10:31;;;;;;;5.00;3.20;;;;;;100018.61;;;;107801;1271;28538;-30
2022/05/24 00:12:58;;;;;;;6.10;3.50;;;;;;100014.33;;;;107829;1271;28633;-30
2022/05/24 00:15:30;;;;;;;6.00;3.50;;;;;;100016.34;;;;107825;1271;28700;-30
2022/05/24 00:18:22;;;;;;;5.00;3.60;;;;;;100015.10;;;;107839;1271;27322;-30
2022/05/24 00:20:55;;;;;;;4.50;3.20;;;;;;100015.88;;;;107813;1271;27719;-30
2022/05/24 00:23:23;;;;;;;;;;;;;;100009.98;;;;107803;1271;28676;-30
2022/05/24 00:25:54;;;;;;;4.80;3.40;;;;;;100011.00;;;;107863;1271;26111;-30
2022/05/24 00:28:25;;;;;;;5.10;3.70;;;;;;100010.24;;;;107740;1271;28753;-31
2022/05/24 00:30:52;;;;;;;5.30;3.60;;;;;;100007.48;;;;107808;1271;28614;-30
2022/05/24 00:33:21;;;;;;;5.10;3.50;;;;;;100007.04;;;;107822;1271;28085;-30
2022/05/24 00:35:48;;;;;;;5.20;3.40;;;;;;100009.00;;;;107792;1271;28608;-30
2022/05/24 00:38:26;;;;;;;5.20;3.50;;;;;;100008.83;;;;107848;1271;27404;-30
2022/05/24 00:41:27;;;;;;;5.20;3.30;;;;;;100008.84;;;;107791;1271;30038;-30
2022/05/24 00:44:07;;;;;;;5.10;3.40;;;;;;100004.52;;;;107770;1271;28569;-30
2022/05/24 00:46:46;;;;;;;5.40;3.40;;;;;;100005.92;;;;107810;1272;28629;-30
2022/05/24 00:49:24;;;;;;;4.70;3.40;;;;;;100000.14;;;;107820;1271;28692;-30
2022/05/24 00:52:16;;;;;;;4.90;3.20;;;;;;99998.13;;;;107847;1271;28687;-30
2022/05/24 00:54:44;;;;;;;5.70;3.70;;;;;;99996.14;;;;107859;1271;30512;-30
2022/05/24 00:57:34;;;;;;;5.30;3.60;;;;;;99992.27;;;;107782;1272;28757;-30
2022/05/24 01:00:24;;;;;;;6.00;3.60;;;;;;99996.83;;;;107829;1271;30673;-30
2022/05/24 01:02:51;;;;;;;5.80;3.60;;;;;;99996.85;;;;107797;1271;27843;-30
2022/05/24 01:05:29;;;;;;;4.90;3.50;;;;;;99997.51;;;;107820;1271;28825;-30
2022/05/24 01:07:59;;;;;;;5.00;3.40;;;;;;100000.34;;;;107785;1272;28681;-30
2022/05/24 01:10:31;;;;;;;5.20;3.50;;;;;;99999.01;;;;107800;1271;28619;-30
2022/05/24 01:13:07;;;;;;;5.30;3.70;;;;;;100003.23;;;;107823;1271;28650;-30
2022/05/24 01:15:34;;;;;;;5.70;3.70;;;;;;100000.29;;;;107806;1271;30789;-30
2022/05/24 01:18:01;;;;;;;6.50;3.90;;;;;;99998.52;;;;107800;1271;27871;-30
2022/05/24 01:20:28;;;;;;;5.60;4.10;;;;;;99994.91;;;;107806;1271;28201;-30
2022/05/24 01:23:11;;;;;;;5.40;3.50;;;;;;99993.83;;;;107820;1271;27384;-30
2022/05/24 01:26:15;;;;;;;5.10;3.60;;;;;;99993.88;;;;107792;1271;27503;-30
2022/05/24 01:28:47;;;;;;;6.00;3.70;;;;;;99997.74;;;;107781;1271;28683;-30
2022/05/24 01:31:14;;;;;;;5.30;3.80;;;;;;99999.33;;;;107824;1271;28529;-30
2022/05/24 01:36:29;;;;;;;5.50;3.90;;;;;;99995.77;;;;107777;1271;26317;-29
2022/05/24 01:39:02;;;;;;;5.70;3.80;;;;;;99994.54;;;;107815;1271;28615;-30
2022/05/24 01:41:44;;;;;;;6.10;3.90;;;;;;99995.58;;;;107772;1271;28125;-30
2022/05/24 01:44:12;;;;;;;5.20;3.70;;;;;;100000.01;;;;107786;1271;28535;-30
2022/05/24 01:46:48;;;;;;;5.50;3.90;;;;;;99996.45;;;;107784;1271;28326;-30
2022/05/24 01:49:25;;;;;;;5.20;3.80;;;;;;99996.02;;;;107766;1271;28693;-30
2022/05/24 01:52:10;;;;;;;5.30;3.90;;;;;;99990.38;;;;107782;1271;28715;-30
2022/05/24 01:54:47;;;;;;;4.90;3.70;;;;;;99987.73;;;;107832;1271;27474;-30
2022/05/24 01:57:20;;;;;;;6.30;3.80;;;;;;99987.23;;;;107911;1271;28668;-30
2022/05/24 01:59:49;;;;;;;;;;;;;;99987.40;;;;107887;1271;27681;-30
2022/05/24 02:02:16;;;;;;;5.60;3.90;;;;;;99983.88;;;;107829;1271;28662;-30
2022/05/24 02:04:43;;;;;;;6.00;4.00;;;;;;99979.40;;;;107814;1273;28692;-30
2022/05/24 02:07:17;;;;;;;6.90;4.10;;;;;;99974.27;;;;107812;1271;28613;-30
2022/05/24 02:09:47;;;;;;;6.90;4.10;;;;;;99976.02;;;;107786;1271;28641;-30
2022/05/24 02:12:44;;;;;;;5.60;3.70;;;;;;99979.70;;;;107809;1271;27644;-30
2022/05/24 02:15:17;;;;;;;4.90;3.60;;;;;;99980.14;;;;107825;1271;27778;-30
2022/05/24 02:18:02;;;;;;;6.20;4.30;;;;;;99977.73;;;;107815;1271;27346;-30
2022/05/24 02:20:38;;;;;;;6.10;3.80;;;;;;99976.75;;;;107795;1273;26124;-30
2022/05/24 02:23:07;;;;;;;5.00;4.00;;;;;;99975.15;;;;107825;1271;28604;-30
2022/05/24 02:25:45;;;;;;;5.50;4.30;;;;;;99968.89;;;;107820;1271;28142;-30
2022/05/24 02:28:14;;;;;;;6.10;4.00;;;;;;99968.23;;;;107804;1271;30864;-30
2022/05/24 02:30:47;;;;;;;5.30;4.10;;;;;;99971.70;;;;107827;1271;28042;-30
2022/05/24 02:33:13;;;;;;;5.70;4.40;;;;;;99974.48;;;;107806;1271;28706;-30
2022/05/24 02:35:40;;;;;;;5.30;3.80;;;;;;99976.41;;;;107804;1271;26150;-30
2022/05/24 02:38:07;;;;;;;9.10;4.40;;;;;;99976.15;;;;107829;1271;27849;-30
2022/05/24 02:43:19;;;;;;;5.50;3.80;;;;;;99965.91;;;;107858;1271;28717;-30
2022/05/24 02:45:46;;;;;;;6.10;4.00;;;;;;99962.47;;;;107791;1271;27280;-30
2022/05/24 02:48:13;;;;;;;5.60;4.00;;;;;;99958.73;;;;107792;1271;30756;-29
2022/05/24 02:50:40;;;;;;;7.80;4.50;;;;;;99956.17;;;;107788;1271;28772;-29
2022/05/24 02:53:06;;;;;;;5.70;4.30;;;;;;99955.30;;;;107804;1271;28676;-33
2022/05/24 02:55:33;;;;;;;6.30;4.50;;;;;;99956.09;;;;107805;1271;28617;-33
2022/05/24 02:58:00;;;;;;;6.20;4.30;;;;;;99951.79;;;;107798;1271;27578;-34
2022/05/24 03:00:27;;;;;;;6.70;4.50;;;;;;99952.16;;;;107817;1271;26070;-33
2022/05/24 03:02:54;;;;;;;5.60;4.00;;;;;;99945.88;;;;107810;1271;28160;-33
2022/05/24 03:05:23;;;;;;;6.00;4.40;;;;;;99948.05;;;;107822;1271;30938;-33
2022/05/24 03:10:36;;;;;;;6.60;4.50;;;;;;99949.67;;;;107788;1271;30080;-33
2022/05/24 03:15:50;;;;;;;6.40;4.30;;;;;;99953.10;;;;107788;1271;29822;-33
2022/05/24 03:18:19;;;;;;;6.10;4.30;;;;;;99955.71;;;;107764;1271;28669;-33
2022/05/24 03:20:45;;;;;;;5.60;4.40;;;;;;99951.98;;;;107814;1270;30796;-33
2022/05/24 03:23:13;;;;;;;5.40;4.40;;;;;;99950.92;;;;107784;1271;28714;-33
2022/05/24 03:25:40;;;;;;;6.10;4.40;;;;;;99951.06;;;;107810;1271;27664;-33
2022/05/24 03:28:08;;;;;;;6.00;4.10;;;;;;99945.64;;;;107781;1271;28705;-33
2022/05/24 03:30:42;;;;;;;5.50;4.10;;;;;;99950.53;;;;107792;1273;28704;-33
2022/05/24 03:33:10;;;;;;;5.40;4.00;;;;;;99948.66;;;;107785;1271;27655;-32
2022/05/24 03:35:37;;;;;;;6.00;4.00;;;;;;99945.73;;;;107786;1271;28211;-33
2022/05/24 03:38:05;;;;;;;5.50;4.60;;;;;;99949.58;;;;107819;1271;27918;-33
2022/05/24 03:40:32;;;;;;;6.90;4.50;;;;;;99952.02;;;;107787;1271;28371;-34
2022/05/24 03:42:59;;;;;;;7.20;5.00;;;;;;99949.26;;;;107791;1271;28731;-34
2022/05/24 03:45:26;;;;;;;6.10;4.30;;;;;;99946.72;;;;107770;1271;27758;-33
2022/05/24 03:47:52;;;;;;;6.10;4.60;;;;;;99943.61;;;;107755;1271;28717;-33
2022/05/24 03:50:22;;;;;;;6.50;4.70;;;;;;99948.88;;;;107800;1271;28755;-34
2022/05/24 03:52:49;;;;;;;5.60;4.10;;;;;;99944.02;;;;107804;1271;28359;-34
2022/05/24 03:55:16;;;;;;;5.60;4.20;;;;;;99943.44;;;;107785;1271;28724;-34
2022/05/24 03:58:01;;;;;;;5.20;4.00;;;;;;99940.75;;;;107810;1271;26683;-35
2022/05/24 04:00:34;;;;;;;5.30;4.10;;;;;;99941.81;;;;107808;1271;30895;-35
2022/05/24 04:03:02;;;;;;;6.10;4.20;;;;;;99940.88;;;;107807;1271;28857;-34
2022/05/24 04:05:30;;;;;;;6.00;4.30;;;;;;99941.85;;;;107805;1271;28743;-34
2022/05/24 04:07:58;;;;;;;6.10;4.30;;;;;;99942.63;;;;107801;1271;28645;-33
2022/05/24 04:10:24;;;;;;;5.40;4.00;;;;;;99941.92;;;;107833;1271;27762;-33
2022/05/24 04:12:51;;;;;;;6.00;4.30;;;;;;99941.66;;;;107772;1271;30851;-34
2022/05/24 04:15:19;;;;;;;6.20;4.10;;;;;;99936.63;;;;107834;1271;28515;-34
2022/05/24 04:17:46;;;;;;;5.00;4.00;;;;;;99938.48;;;;107791;1271;28123;-34
2022/05/24 04:20:15;;;;;;;5.80;4.00;;;;;;99943.77;;;;107793;1271;28654;-34
2022/05/24 04:22:43;;;;;;;5.80;4.70;;;;;;99946.61;;;;107760;1272;28875;-34
2022/05/24 04:25:12;;;;;;;5.40;3.90;;;;;;99945.38;;;;107787;1271;28629;-33
2022/05/24 04:27:39;;;;;;;5.70;4.10;;;;;;99945.67;;;;107812;1271;26119;-33
2022/05/24 04:30:08;;;;;;;5.90;4.20;;;;;;99948.25;;;;107804;1271;28760;-33
2022/05/24 04:32:35;;;;;;;6.00;4.30;;;;;;99948.50;;;;107794;1271;26373;-34
2022/05/24 04:35:02;;;;;;;7.20;4.50;;;;;;99945.14;;;;107814;1271;27649;-34
2022/05/24 04:37:28;;;;;;;6.00;4.10;;;;;;99945.08;;;;107801;1271;28753;-33
2022/05/24 04:39:55;;;;;;;5.70;4.60;;;;;;99944.61;;;;107798;1273;28753;-33
2022/05/24 04:42:22;;;;;;;6.30;4.40;;;;;;99945.52;;;;107806;1271;27370;-33
2022/05/24 04:44:56;;;;;;;5.20;3.90;;;;;;99943.10;;;;107800;1271;28666;-34
2022/05/24 04:47:25;;;;;;;6.20;4.30;;;;;;99943.92;;;;107813;1271;28646;-33
2022/05/24 04:49:54;;;;;;;5.80;4.00;;;;;;99941.02;;;;107815;1271;27569;-34
2022/05/24 04:52:25;;;;;;;5.70;4.40;;;;;;99946.97;;;;107798;1272;27406;-32
2022/05/24 04:54:53;;;;;;;5.10;3.90;;;;;;99950.23;;;;107810;1271;28410;-34
2022/05/24 04:57:20;;;;;;;7.20;4.50;;;;;;99946.90;;;;107798;1272;30704;-33
2022/05/24 04:59:47;;;;;;;5.90;4.40;;;;;;99945.34;;;;107850;1273;28108;-33
2022/05/24 05:02:14;;;;;;;5.90;4.30;;;;;;99947.81;;;;107816;1271;28671;-33
2022/05/24 05:04:41;;;;;;;6.10;4.30;;;;;;99947.14;;;;107807;1271;28597;-33
2022/05/24 05:07:07;;;;;;;5.60;4.30;;;;;;99949.55;;;;107706;1273;28224;-34
2022/05/24 05:09:35;;;;;;;6.30;4.40;;;;;;99949.38;;;;107800;1271;29159;-34
2022/05/24 05:12:07;;;;;;;5.40;4.20;;;;;;99946.63;;;;107818;1271;28634;-33
2022/05/24 05:14:37;;;;;;;5.20;4.00;;;;;;99945.68;;;;107817;1271;27491;-33
2022/05/24 05:17:04;;;;;;;5.80;4.50;;;;;;99948.42;;;;107798;1271;28673;-33
2022/05/24 05:19:31;;;;;;;5.80;4.10;;;;;;99943.97;;;;107741;1271;27203;-33
2022/05/24 05:21:58;;;;;;;6.20;4.00;;;;;;99945.84;;;;107806;1273;28744;-33
2022/05/24 05:24:25;;;;;;;7.20;4.40;;;;;;99951.02;;;;107834;1271;30618;-33
2022/05/24 05:26:52;;;;;;;6.10;4.50;;;;;;99955.36;;;;107626;1271;218073;-33
2022/05/24 05:31:16;;;;;;;5.30;4.30;;;;;;99958.13;;;;107777;1271;28723;-33
2022/05/24 05:32:06;;;;;;;6.00;4.00;;;;;;99953.61;;;;107786;1271;28150;-34
2022/05/24 05:34:33;;;;;;;6.70;5.00;;;;;;99960.50;;;;107814;1271;26239;-33
2022/05/24 05:37:05;;;;;;;6.60;5.00;;;;;;99955.63;;;;107833;1271;26390;-33
2022/05/24 05:39:45;;;;;;;5.90;5.10;;;;;;99949.64;;;;108022;1271;27940;-34
2022/05/24 05:42:16;;;;;;;7.00;5.10;;;;;;99951.69;;;;108060;1271;27718;-33
2022/05/24 05:44:43;;;;;;;6.00;4.50;;;;;;99948.42;;;;107871;1271;28659;-33
2022/05/24 05:47:10;;;;;;;6.50;5.20;;;;;;99944.16;;;;107883;1271;28614;-33
2022/05/24 05:49:47;;;;;;;6.80;4.70;;;;;;99946.22;;;;108194;1271;27777;-35
2022/05/24 05:52:18;;;;;;;6.50;5.20;;;;;;99945.27;;;;108030;1271;28647;-33
2022/05/24 05:54:47;;;;;;;7.10;4.70;;;;;;99947.13;;;;107956;1271;30514;-33
2022/05/24 05:57:14;;;;;;;6.40;5.10;;;;;;99945.45;;;;107882;1273;28625;-34
2022/05/24 05:59:43;;;;;;;6.30;4.90;;;;;;99944.70;;;;107951;1272;28748;-33
2022/05/24 06:02:11;;;;;;;6.80;5.10;;;;;;99942.95;;;;108019;1272;28642;-33
2022/05/24 06:05:10;;;;;;;8.40;5.30;;;;;;99941.70;;;;107981;1273;29695;-33
2022/05/24 06:07:39;;;;;;;6.10;4.80;;;;;;99938.05;;;;108089;1272;26474;-33
2022/05/24 06:10:14;;;;;;;5.80;4.40;;;;;;99936.02;;;;107967;1273;28617;-33
2022/05/24 06:12:42;;;;;;;6.70;4.80;;;;;;99936.66;;;;107922;1272;27953;-32
2022/05/24 06:15:10;;;;;;;7.00;4.60;;;;;;99930.74;;;;107929;1273;27656;-34
2022/05/24 06:17:49;;;;;;;7.50;4.70;;;;;;99934.58;;;;107767;1273;27647;-34
2022/05/24 06:20:19;;;;;;;5.90;4.40;;;;;;99941.64;;;;107853;1271;28749;-34
2022/05/24 06:22:49;;;;;;;7.90;4.90;;;;;;99941.24;;;;107852;1273;30749;-33
2022/05/24 06:25:17;;;;;;;7.40;4.80;;;;;;99944.13;;;;107897;1273;28572;-33
2022/05/24 06:27:45;;;;;;;6.30;4.50;;;;;;99941.97;;;;107929;1273;26234;-33
2022/05/24 06:30:14;;;;;;;6.50;4.30;;;;;;99936.11;;;;107891;1271;27823;-33
2022/05/24 06:32:41;;;;;;;4.90;3.90;;;;;;99945.83;;;;107984;1272;26176;-33
2022/05/24 06:35:08;;;;;;;5.10;3.80;;;;;;99943.77;;;;107800;1273;27400;-33
2022/05/24 06:37:38;;;;;;;6.20;4.30;;;;;;99943.52;;;;107941;1271;28636;-33
2022/05/24 06:40:07;;;;;;;6.00;4.10;;;;;;99943.59;;;;107858;1271;26027;-33
2022/05/24 06:42:34;;;;;;;6.10;4.00;;;;;;99948.72;;;;107862;1271;30535;-33
2022/05/24 06:45:01;;;;;;;5.00;3.70;;;;;;99943.19;;;;107808;1271;27687;-33
2022/05/24 06:47:28;;;;;;;7.10;4.20;;;;;;99945.83;;;;107803;1273;28635;-33
2022/05/24 06:49:56;;;;;;;6.30;3.90;;;;;;99938.73;;;;107837;1271;28416;-33
2022/05/24 06:52:23;;;;;;;6.00;3.90;;;;;;99940.83;;;;107708;1273;28715;-34
2022/05/24 06:54:49;;;;;;;5.70;3.90;;;;;;99934.43;;;;107787;1273;28577;-33
2022/05/24 06:57:16;;;;;;;5.10;3.40;;;;;;99940.77;;;;107788;1273;27366;-33
2022/05/24 07:02:30;;;;;;;4.90;3.40;;;;;;99938.88;;;;107738;1271;27411;-30
2022/05/24 07:05:04;;;;;;;6.30;3.60;;;;;;99930.69;;;;107811;1271;27989;-31
2022/05/24 07:07:33;;;;;;;5.30;3.60;;;;;;99927.70;;;;107824;1271;30896;-31
2022/05/24 07:10:00;;;;;;;6.90;3.30;;;;;;99924.66;;;;107884;1271;27465;-31
2022/05/24 07:12:28;;;;;;;4.90;3.30;;;;;;99921.58;;;;107906;1271;28723;-30
2022/05/24 07:14:58;;;;;;;4.80;3.70;;;;;;99919.52;;;;107801;1271;28636;-30
2022/05/24 07:17:25;;;;;;;6.00;3.20;;;;;;99914.87;;;;107912;1271;29792;-28
2022/05/24 07:19:52;;;;;;;5.40;3.30;;;;;;99911.85;;;;107753;1271;28685;-29
2022/05/24 07:22:19;;;;;;;4.30;3.10;;;;;;99907.11;;;;107936;1271;27686;-30
2022/05/24 07:24:49;;;;;;;5.00;3.60;;;;;;99905.86;;;;107811;1273;28749;-29
2022/05/24 07:27:20;;;;;;;5.40;3.80;;;;;;99908.65;;;;107918;1271;28652;-30
2022/05/24 07:29:48;;;;;;;5.50;3.20;;;;;;99906.14;;;;107801;1271;30424;-29
2022/05/24 07:32:15;;;;;;;5.30;3.30;;;;;;99910.58;;;;107697;1273;28499;-29
2022/05/24 07:34:41;;;;;;;6.70;3.40;;;;;;99914.23;;;;107780;1271;29342;-30
2022/05/24 07:37:14;;;;;;;5.70;3.40;;;;;;99907.71;;;;107939;1271;28763;-31
2022/05/24 07:39:41;;;;;;;4.50;2.90;;;;;;99904.48;;;;107844;1271;28645;-31
2022/05/24 07:47:38;;;;;;;5.10;3.20;;;;;;99900.74;;;;107761;1271;30747;-30
2022/05/24 07:50:06;;;;;;;4.70;3.10;;;;;;99904.96;;;;107877;1271;30776;-30
2022/05/24 07:52:32;;;;;;;5.60;3.10;;;;;;99911.91;;;;107820;1271;28694;-30
2022/05/24 07:54:59;;;;;;;4.70;2.90;;;;;;99916.91;;;;107915;1271;28613;-30
2022/05/24 07:57:26;;;;;;;5.60;3.40;;;;;;99913.27;;;;107842;1271;28674;-30
2022/05/24 07:59:52;;;;;;;4.80;3.00;;;;;;99911.97;;;;107767;1271;27523;-30
2022/05/24 08:02:20;;;;;;;4.70;2.70;;;;;;99910.43;;;;107802;1271;29534;-30
2022/05/24 08:04:47;;;;;;;5.10;3.00;;;;;;99916.34;;;;107791;1271;28725;-30
2022/05/24 08:07:13;;;;;;;5.50;2.80;;;;;;99911.21;;;;107886;1270;28682;-30
2022/05/24 08:09:40;;;;;;;5.20;2.70;;;;;;99913.93;;;;107861;1271;27688;-30
2022/05/24 08:12:07;;;;;;;4.60;2.50;;;;;;99913.35;;;;107922;1271;26389;-30
2022/05/24 08:14:34;;;;;;;4.10;2.80;;;;;;99915.33;;;;107877;1271;29189;-30
2022/05/24 08:17:00;;;;;;;4.30;2.70;;;;;;99916.34;;;;107715;1271;30538;-30
2022/05/24 08:19:27;;;;;;;4.70;2.80;;;;;;99912.81;;;;107965;1271;27508;-30
2022/05/24 08:21:55;;;;;;;5.00;3.30;;;;;;99916.52;;;;107887;1271;30644;-30
2022/05/24 08:24:21;;;;;;;4.80;3.10;;;;;;99919.20;;;;108006;1271;30271;-30
2022/05/24 08:26:48;;;;;;;4.10;2.80;;;;;;99921.42;;;;107984;1271;28708;-30
2022/05/24 08:29:15;;;;;;;4.30;2.70;;;;;;99924.34;;;;107917;1271;27422;-30
2022/05/24 08:31:41;;;;;;;4.20;2.90;;;;;;99926.44;;;;107942;1271;27336;-30
2022/05/24 08:34:08;;;;;;;4.90;2.60;;;;;;99921.65;;;;107985;1271;26079;-30
2022/05/24 08:36:35;;;;;;;4.30;2.60;;;;;;99922.27;;;;108012;1271;28633;-29
2022/05/24 08:39:03;;;;;;;3.90;2.60;;;;;;99926.34;;;;107852;1271;30859;-29
2022/05/24 08:42:06;;;;;;;4.20;2.50;;;;;;99923.40;;;;108010;1271;28738;-30
2022/05/24 08:50:27;;;;;;;6.10;3.70;;;;;;99920.95;;;;107890;1271;27296;-30
2022/05/24 08:53:10;;;;;;;9.40;5.50;;;;;;99920.46;;;;107841;1271;30960;-30
2022/05/24 08:55:39;;;;;;;10.00;6.10;;;;;;99918.36;;;;107977;1271;28681;-31
2022/05/24 08:58:10;;;;;;;9.90;6.00;;;;;;99916.40;;;;107848;1271;27507;-34
2022/05/24 09:00:40;;;;;;;8.60;5.90;;;;;;99920.66;;;;107834;1271;30656;-34
2022/05/24 09:03:09;;;;;;;9.70;5.40;;;;;;99916.39;;;;107971;1271;30650;-33
2022/05/24 09:05:39;;;;;;;8.80;5.50;;;;;;99916.50;;;;107787;1271;28988;-33
2022/05/24 09:08:32;;;;;;;8.00;5.30;;;;;;99911.07;;;;107809;1271;27797;-34
2022/05/24 09:12:05;;;;;;;8.70;5.50;;;;;;99909.04;;;;107799;1271;28477;-35
2022/05/24 09:15:02;;;;;;;10.80;5.50;;;;;;99905.56;;;;107698;1271;28843;-34
2022/05/24 09:17:58;;;;;;;7.90;4.80;;;;;;99894.33;;;;107932;1271;28613;-34
2022/05/24 09:20:25;;;;;;;7.80;4.50;;;;;;99892.25;;;;107891;1271;27218;-34
2022/05/24 09:23:24;;;;;;;10.80;5.60;;;;;;99896.77;;;;107837;1271;28649;-34
2022/05/24 09:26:13;;;;;;;9.10;4.60;;;;;;99892.82;;;;107666;1271;28145;-35
2022/05/24 09:29:09;;;;;;;6.30;4.10;;;;;;99884.10;;;;107836;1271;28761;-35
2022/05/24 09:31:48;;;;;;;7.00;4.20;;;;;;99880.20;;;;107749;1271;28913;-35
2022/05/24 09:34:18;;;;;;;8.90;4.10;;;;;;99879.52;;;;107877;1271;29626;-35
2022/05/24 09:36:54;;;;;;;6.40;3.80;;;;;;99877.63;;;;107897;1271;28684;-35
2022/05/24 09:39:41;;;;;;;6.80;4.00;;;;;;99881.33;;;;107748;1271;27721;-35
2022/05/24 09:42:23;;;;;;;7.00;4.20;;;;;;99868.66;;;;107745;1271;27886;-35
2022/05/24 09:45:07;;;;;;;7.60;3.60;;;;;;99872.02;;;;107870;1271;30801;-35
2022/05/24 09:47:43;;;;;;;6.40;3.90;;;;;;99869.69;;;;107821;1271;28613;-35
2022/05/24 09:50:16;;;;;;;6.70;4.10;;;;;;99864.89;;;;107855;1271;30833;-35
2022/05/24 09:53:03;;;;;;;6.50;3.70;;;;;;99863.40;;;;107888;1271;28684;-34
2022/05/24 09:56:17;;;;;;;6.70;3.30;;;;;;99874.83;;;;107788;1271;27795;-35
2022/05/24 09:59:00;;;;;;;5.60;3.60;;;;;;99869.34;;;;107699;1271;26380;-35
2022/05/24 10:01:41;;;;;;;5.40;3.40;;;;;;99874.67;;;;107934;1271;29909;-35
2022/05/24 10:04:26;;;;;;;7.60;3.70;;;;;;99877.69;;;;107855;1271;27545;-35
2022/05/24 10:07:10;;;;;;;6.10;3.40;;;;;;99877.19;;;;107833;1271;28676;-35
2022/05/24 10:09:57;;;;;;;6.00;3.50;;;;;;99882.64;;;;107747;1271;28671;-35
2022/05/24 10:12:40;;;;;;;5.10;3.30;;;;;;99875.60;;;;107886;1271;27634;-35
2022/05/24 10:15:21;;;;;;;5.60;3.30;;;;;;99875.10;;;;107944;1271;29862;-35
2022/05/24 10:18:01;;;;;;;7.00;3.20;;;;;;99866.81;;;;107815;1270;28657;-34
2022/05/24 10:20:43;;;;;;;5.40;3.10;;;;;;99867.69;;;;107832;1271;27444;-33
2022/05/24 10:23:19;;;;;;;5.30;3.20;;;;;;99869.52;;;;107940;1271;28611;-35
2022/05/24 10:26:29;;;;;;;6.50;2.90;;;;;;99868.71;;;;107813;1271;28641;-37
2022/05/24 10:29:04;;;;;;;5.20;3.10;;;;;;99860.71;;;;107829;1271;28738;-36
2022/05/24 10:31:47;;;;;;;5.30;3.00;;;;;;99859.35;;;;107789;1271;26814;-35
2022/05/24 10:38:28;;;;;;;5.10;3.00;;;;;;99851.20;;;;107792;1271;28625;-37
2022/05/24 10:41:09;;;;;;;6.30;3.10;;;;;;99850.20;;;;107818;1271;28653;-35
2022/05/24 10:43:54;;;;;;;5.70;3.10;;;;;;99844.83;;;;107824;1273;29622;-35
2022/05/24 10:47:08;;;;;;;5.70;3.00;;;;;;99854.91;;;;107872;1271;28481;-37
2022/05/24 10:50:01;;;;;;;4.80;2.70;;;;;;99848.51;;;;107506;1279;28535;-33
2022/05/24 10:52:47;;;;;;;4.90;2.70;;;;;;99850.02;;;;107823;1271;28712;-33
2022/05/24 10:55:31;;;;;;;5.70;3.00;;;;;;99848.34;;;;107949;1271;28702;-34
2022/05/24 10:58:09;;;;;;;4.20;2.50;;;;;;99844.36;;;;107823;1271;28783;-34
2022/05/24 11:00:44;;;;;;;4.30;2.50;;;;;;99842.69;;;;107775;1271;28641;-34
2022/05/24 11:03:15;;;;;;;4.50;2.50;;;;;;99843.56;;;;107755;1271;28639;-33
2022/05/24 11:05:45;;;;;;;4.20;2.50;;;;;;99836.84;;;;107701;1271;26043;-33
2022/05/24 11:08:46;;;;;;;6.60;2.40;;;;;;99837.63;;;;107751;1271;28570;-33
2022/05/24 11:11:44;;;;;;;5.10;2.50;;;;;;99837.73;;;;107718;1271;30694;-33
2022/05/24 11:14:20;;;;;;;5.50;2.70;;;;;;99839.83;;;;107857;1271;29925;-32
2022/05/24 11:16:49;;;;;;;5.00;2.50;;;;;;99844.55;;;;107753;1271;28652;-35
2022/05/24 11:19:22;;;;;;;4.00;2.40;;;;;;99846.83;;;;107979;1271;27285;-34
2022/05/24 11:22:20;;;;;;;4.80;2.80;;;;;;99845.47;;;;107821;1271;28056;-35
2022/05/24 11:25:21;;;;;;;4.20;2.50;;;;;;99848.49;;;;107827;1271;28637;-35
2022/05/24 11:27:56;;;;;;;5.90;2.50;;;;;;99852.75;;;;107792;1271;26181;-35
2022/05/24 11:30:25;;;;;;;4.40;2.20;;;;;;99854.45;;;;107870;1271;28653;-35
2022/05/24 11:33:02;;;;;;;4.30;2.60;;;;;;99852.80;;;;107900;1271;30724;-34
2022/05/24 11:35:35;;;;;;;4.60;2.80;;;;;;99853.08;;;;107791;1272;28654;-33
2022/05/24 11:38:17;;;;;;;5.00;2.80;;;;;;99858.92;;;;107853;1271;28836;-33
2022/05/24 11:41:01;;;;;;;4.80;2.40;;;;;;99854.17;;;;107792;1271;28758;-34
2022/05/24 11:43:43;;;;;;;4.40;2.80;;;;;;99860.12;;;;107792;1271;30255;-33
2022/05/24 11:46:37;;;;;;;4.60;2.60;;;;;;99860.52;;;;107870;1271;27634;-33
2022/05/24 11:49:12;;;;;;;;;;;;;;99865.42;;;;107918;1271;28424;-33
2022/05/24 11:51:45;;;;;;;4.10;2.70;;;;;;99858.52;;;;107798;1273;28837;-34
2022/05/24 11:54:18;;;;;;;4.60;2.90;;;;;;99856.13;;;;107875;1271;27430;-34
2022/05/24 11:57:03;;;;;;;4.20;2.40;;;;;;99854.95;;;;107887;1271;27332;-35
2022/05/24 11:59:48;;;;;;;4.40;2.80;;;;;;99856.35;;;;107782;1273;28761;-34
2022/05/24 12:02:21;;;;;;;5.00;2.80;;;;;;99852.33;;;;107851;1271;30859;-33
2022/05/24 12:07:55;;;;;;;5.20;2.80;;;;;;99850.63;;;;107799;1272;28664;-32
2022/05/24 12:10:22;;;;;;;4.70;2.60;;;;;;99852.60;;;;107868;1271;28591;-31
2022/05/24 12:12:49;;;;;;;4.80;2.40;;;;;;99848.83;;;;107876;1272;27236;-33
2022/05/24 12:15:25;;;;;;;4.80;2.60;;;;;;99851.83;;;;107808;1271;27556;-32
2022/05/24 12:17:58;;;;;;;98.90;68.00;;;;;;99852.13;;;;107769;1271;29559;-34
2022/05/24 12:20:34;;;;;;;104.40;62.80;;;;;;99848.30;;;;107363;1272;29075;-34
2022/05/24 12:23:06;;;;;;;90.20;55.20;;;;;;99851.67;;;;107491;1276;28682;-33
2022/05/24 12:26:13;;;;;;;68.90;43.20;;;;;;99858.89;;;;107420;1278;28607;-33
2022/05/24 12:28:52;;;;;;;53.40;35.00;;;;;;99851.52;;;;107486;1277;31196;-33
2022/05/24 12:31:22;;;;;;;40.40;24.50;;;;;;99856.25;;;;107458;1281;30257;-33
2022/05/24 12:34:02;;;;;;;34.80;23.80;;;;;;99852.70;;;;107487;1277;28648;-33
2022/05/24 12:36:36;;;;;;;35.50;22.00;;;;;;99852.80;;;;107490;1278;28637;-35
2022/05/24 12:39:09;;;;;;;31.90;20.70;;;;;;99850.89;;;;107430;1278;28510;-35
2022/05/24 12:41:47;;;;;;;32.90;21.50;;;;;;99850.02;;;;107445;1278;27686;-34
2022/05/24 12:44:28;;;;;;;30.40;21.10;;;;;;99847.06;;;;107447;1279;28838;-35
2022/05/24 12:47:07;;;;;;;32.50;21.00;;;;;;99841.52;;;;107433;1277;28746;-34
2022/05/24 12:49:37;;;;;;;32.90;20.80;;;;;;99837.88;;;;107434;1278;28655;-39
2022/05/24 12:52:24;;;;;;;28.20;18.30;;;;;;99837.00;;;;107341;1278;27426;-34
2022/05/24 12:54:59;;;;;;;24.30;16.20;;;;;;99839.55;;;;107367;1278;28492;-34
2022/05/24 12:57:31;;;;;;;25.50;16.30;;;;;;99837.79;;;;107351;1277;28781;-34
2022/05/24 13:00:25;;;;;;;22.50;15.60;;;;;;99840.98;;;;109416;1277;26542;-34
2022/05/24 13:02:53;;;;;;;;;;;;;;99845.50;;;;109123;1277;26296;-34
2022/05/24 13:05:28;;;;;;;18.40;11.40;;;;;;99848.59;;;;107547;1278;28643;-34
2022/05/24 13:07:54;;;;;;;15.00;10.30;;;;;;99847.54;;;;107562;1278;27407;-34
2022/05/24 13:10:21;;;;;;;17.30;10.30;;;;;;99851.91;;;;107554;1278;27810;-33
2022/05/24 13:13:03;;;;;;;16.60;9.70;;;;;;99851.78;;;;107551;1278;28762;-32
2022/05/24 13:15:40;;;;;;;18.10;11.40;;;;;;99857.19;;;;107460;1279;27383;-32
2022/05/24 13:18:14;;;;;;;15.60;10.70;;;;;;99859.16;;;;107553;1278;28633;-33
2022/05/24 13:20:55;;;;;;;13.80;10.20;;;;;;99855.77;;;;107456;1278;27457;-30
2022/05/24 13:23:38;;;;;;;13.50;7.90;;;;;;99852.50;;;;107571;1278;28597;-30
2022/05/24 13:26:05;;;;;;;11.20;6.90;;;;;;99847.81;;;;107401;1278;238533;-30
2022/05/24 13:28:55;;;;;;;9.20;6.70;;;;;;99850.84;;;;107549;1278;28679;-30
2022/05/24 13:34:17;;;;;;;8.20;5.00;;;;;;99849.73;;;;107561;1277;28724;-33
2022/05/24 13:36:53;;;;;;;10.20;6.20;;;;;;99848.23;;;;107568;1278;28809;-31
2022/05/24 13:39:27;;;;;;;7.80;5.30;;;;;;99847.02;;;;107471;1281;27575;-31
2022/05/24 13:42:06;;;;;;;9.20;5.60;;;;;;99849.19;;;;107540;1278;28704;-33
2022/05/24 13:44:59;;;;;;;7.90;5.40;;;;;;99847.44;;;;107499;1277;28662;-34
2022/05/24 13:47:34;;;;;;;7.90;4.90;;;;;;99854.90;;;;107560;1278;28658;-34
2022/05/24 13:50:37;;;;;;;8.30;5.10;;;;;;99852.34;;;;107562;1278;28266;-34
2022/05/24 13:53:09;;;;;;;9.30;5.10;;;;;;99853.21;;;;107483;1278;28840;-33
2022/05/24 13:55:40;;;;;;;7.90;4.60;;;;;;99854.95;;;;107470;1278;27793;-31
2022/05/24 13:58:35;;;;;;;7.70;4.80;;;;;;99857.52;;;;107541;1279;27451;-31
2022/05/24 14:01:22;;;;;;;8.30;4.80;;;;;;99862.92;;;;107534;1277;26040;-31
2022/05/24 14:03:55;;;;;;;12.10;4.30;;;;;;99862.47;;;;107454;1278;28809;-33
2022/05/24 14:06:25;;;;;;;;;;;;;;99857.48;;;;107570;1278;28658;-30